Felker Army Air Field
KFAF : now visible

Airfield :











YOU CAN JOIN US ON...

 
LOGIN :

Register | Disclaimer

   EN    FR    IT 

 









Legend :    VFR   Marginal VFR   IFR   Intensive IFR   Very Intensive IFR
Visi :
Ceiling :
>= 8 km
>= 3000ft
5 to 8 km
1000 to 3000 ft
1500m to 5 km
500 to 1000 ft
800 to 1500m
200 to 500 ft
< 800m
< 200 ft
Symbols :   Thunderstorms  Fog  Heavy snow  Heavy precipitations  Wind > 20 kt






- Airport Elevation : 12 ft


KFAF - Felker Army Air Field

CURRENT METAR :
  • 200856Z AUTO 07003KT 4SM -RA BR OVC032 17/15 A2988 RMK AO2 RAB17 SLP121 P0000 60000 T01670145 56023 $

EXPIRED METARs :
  • 200817Z AUTO 14004KT 10SM -RA BKN032 OVC050 17/14 A2990 RMK AO2 RAB17 SLP128 $
  • 200756Z AUTO 09006KT 10SM OVC055 17/13 A2989 RMK AO2 SLP125 T01710128 $
  • 200656Z AUTO 07004KT 10SM OVC055 17/12 A2992 RMK AO2 SLP135 T01650116 $

Expired Forecast.



MET'MAP, your aeronautical weather chart ! - Copyright ORBIFLY December 2007 - Disclaimer

ORBIFLY MET'MAP TEAM :

Programming & Development : Alexandra Zaïnal
Concept & Development : Baudouin d'Aumeries
Co-Development & Prog : Marc-Olivier Méhu
Technical & hardware support : Manuel Goepfert

Contact : metmap@orbifly.com




SOURCES & CREDITS :

   NOAA       Earth
Advisory